sensor_id;sensor_type;location;lat;lon;timestamp;pressure;altitude;pressure_sealevel;temperature;humidity
53300;BME280;39187;48.476;8.310;2023-06-14T00:01:32;90899.38;;;14.83;38.74
53300;BME280;39187;48.476;8.310;2023-06-14T00:04:01;90894.88;;;14.80;38.74
53300;BME280;39187;48.476;8.310;2023-06-14T00:06:28;90892.81;;;14.84;38.87
53300;BME280;39187;48.476;8.310;2023-06-14T00:08:54;90887.31;;;14.88;38.69
53300;BME280;39187;48.476;8.310;2023-06-14T00:11:20;90885.22;;;15.01;38.65
53300;BME280;39187;48.476;8.310;2023-06-14T00:13:46;90889.22;;;15.05;38.04
53300;BME280;39187;48.476;8.310;2023-06-14T00:16:12;90879.38;;;15.11;38.23
53300;BME280;39187;48.476;8.310;2023-06-14T00:18:38;90882.63;;;15.24;37.58
53300;BME280;39187;48.476;8.310;2023-06-14T00:21:06;90882.81;;;15.12;38.23
53300;BME280;39187;48.476;8.310;2023-06-14T00:23:32;90879.25;;;15.06;37.82
53300;BME280;39187;48.476;8.310;2023-06-14T00:25:57;90883.56;;;14.85;38.64
53300;BME280;39187;48.476;8.310;2023-06-14T00:28:23;90875.06;;;15.05;38.31
53300;BME280;39187;48.476;8.310;2023-06-14T00:30:48;90877.78;;;14.96;38.20
53300;BME280;39187;48.476;8.310;2023-06-14T00:33:14;90879.69;;;15.13;38.03
53300;BME280;39187;48.476;8.310;2023-06-14T00:35:40;90870.78;;;14.89;38.53
53300;BME280;39187;48.476;8.310;2023-06-14T00:38:05;90875.22;;;14.92;38.20
53300;BME280;39187;48.476;8.310;2023-06-14T00:40:31;90874.50;;;14.73;38.72
53300;BME280;39187;48.476;8.310;2023-06-14T00:42:57;90869.56;;;14.99;38.45
53300;BME280;39187;48.476;8.310;2023-06-14T00:45:22;90886.56;;;14.96;38.56
53300;BME280;39187;48.476;8.310;2023-06-14T00:47:49;90877.16;;;14.92;38.78
53300;BME280;39187;48.476;8.310;2023-06-14T00:50:19;90879.13;;;14.91;38.56
53300;BME280;39187;48.476;8.310;2023-06-14T00:52:45;90878.38;;;14.72;38.88
53300;BME280;39187;48.476;8.310;2023-06-14T00:55:11;90880.88;;;14.85;38.53
53300;BME280;39187;48.476;8.310;2023-06-14T00:57:37;90878.97;;;14.76;38.50
53300;BME280;39187;48.476;8.310;2023-06-14T01:00:03;90884.78;;;14.84;38.47
53300;BME280;39187;48.476;8.310;2023-06-14T01:02:33;90878.97;;;14.76;38.19
53300;BME280;39187;48.476;8.310;2023-06-14T01:04:59;90879.56;;;14.71;38.38
53300;BME280;39187;48.476;8.310;2023-06-14T01:10:45;90879.72;;;14.77;38.05
53300;BME280;39187;48.476;8.310;2023-06-14T01:13:35;90879.72;;;14.77;38.17
53300;BME280;39187;48.476;8.310;2023-06-14T01:16:02;90881.34;;;14.83;38.41
53300;BME280;39187;48.476;8.310;2023-06-14T01:18:29;90879.88;;;14.82;38.58
53300;BME280;39187;48.476;8.310;2023-06-14T01:20:55;90879.44;;;14.84;38.72
53300;BME280;39187;48.476;8.310;2023-06-14T01:23:22;90882.41;;;14.77;38.20
53300;BME280;39187;48.476;8.310;2023-06-14T01:25:49;90881.19;;;14.69;38.34
53300;BME280;39187;48.476;8.310;2023-06-14T01:28:19;90880.00;;;14.61;38.73
53300;BME280;39187;48.476;8.310;2023-06-14T01:30:47;90875.25;;;14.65;38.40
53300;BME280;39187;48.476;8.310;2023-06-14T01:33:15;90878.38;;;14.63;38.37
53300;BME280;39187;48.476;8.310;2023-06-14T01:35:43;90876.88;;;14.62;38.44
53300;BME280;39187;48.476;8.310;2023-06-14T01:38:09;90876.44;;;14.55;38.86
53300;BME280;39187;48.476;8.310;2023-06-14T01:40:35;90877.41;;;14.30;39.58
53300;BME280;39187;48.476;8.310;2023-06-14T01:43:03;90872.50;;;14.19;39.54
53300;BME280;39187;48.476;8.310;2023-06-14T01:45:29;90881.72;;;14.18;39.81
53300;BME280;39187;48.476;8.310;2023-06-14T01:47:55;90880.38;;;14.23;39.50
53300;BME280;39187;48.476;8.310;2023-06-14T01:50:21;90876.78;;;14.17;39.62
53300;BME280;39187;48.476;8.310;2023-06-14T01:52:46;90882.72;;;14.12;39.71
53300;BME280;39187;48.476;8.310;2023-06-14T01:55:12;90885.53;;;13.99;39.88
53300;BME280;39187;48.476;8.310;2023-06-14T01:57:38;90886.00;;;14.07;39.85
53300;BME280;39187;48.476;8.310;2023-06-14T02:00:04;90895.63;;;14.04;40.08
53300;BME280;39187;48.476;8.310;2023-06-14T02:02:33;90887.03;;;14.00;40.51
53300;BME280;39187;48.476;8.310;2023-06-14T02:04:59;90890.44;;;14.00;40.49
53300;BME280;39187;48.476;8.310;2023-06-14T02:07:24;90883.72;;;13.96;40.64
53300;BME280;39187;48.476;8.310;2023-06-14T02:09:50;90887.44;;;13.98;40.51
53300;BME280;39187;48.476;8.310;2023-06-14T02:12:15;90878.94;;;13.91;40.54
53300;BME280;39187;48.476;8.310;2023-06-14T02:14:41;90887.44;;;13.98;40.44
53300;BME280;39187;48.476;8.310;2023-06-14T02:17:07;90882.22;;;13.86;40.69
53300;BME280;39187;48.476;8.310;2023-06-14T02:19:33;90882.97;;;13.95;40.73
53300;BME280;39187;48.476;8.310;2023-06-14T02:21:59;90876.59;;;14.02;40.52
53300;BME280;39187;48.476;8.310;2023-06-14T02:24:24;90893.28;;;14.06;40.37
53300;BME280;39187;48.476;8.310;2023-06-14T02:26:50;90887.88;;;13.88;40.57
53300;BME280;39187;48.476;8.310;2023-06-14T02:29:16;90883.72;;;13.87;40.26
53300;BME280;39187;48.476;8.310;2023-06-14T02:31:41;90877.78;;;13.92;40.76
53300;BME280;39187;48.476;8.310;2023-06-14T02:34:07;90874.63;;;13.84;40.78
53300;BME280;39187;48.476;8.310;2023-06-14T02:36:36;90873.59;;;13.82;40.75
53300;BME280;39187;48.476;8.310;2023-06-14T02:39:10;90876.81;;;13.77;40.86
53300;BME280;39187;48.476;8.310;2023-06-14T02:41:36;90877.28;;;13.75;40.76
53300;BME280;39187;48.476;8.310;2023-06-14T02:44:02;90876.09;;;13.76;40.68
53300;BME280;39187;48.476;8.310;2023-06-14T02:46:27;90870.56;;;13.71;40.86
53300;BME280;39187;48.476;8.310;2023-06-14T02:48:53;90877.13;;;13.70;40.88
53300;BME280;39187;48.476;8.310;2023-06-14T02:51:18;90874.13;;;13.68;40.94
53300;BME280;39187;48.476;8.310;2023-06-14T02:53:44;90873.38;;;13.67;40.72
53300;BME280;39187;48.476;8.310;2023-06-14T02:56:10;90884.03;;;13.58;41.26
53300;BME280;39187;48.476;8.310;2023-06-14T02:58:37;90871.72;;;13.60;40.73
53300;BME280;39187;48.476;8.310;2023-06-14T03:01:05;90878.28;;;13.69;40.94
53300;BME280;39187;48.476;8.310;2023-06-14T03:03:33;90880.81;;;13.63;40.78
53300;BME280;39187;48.476;8.310;2023-06-14T03:05:58;90874.13;;;13.68;41.05
53300;BME280;39187;48.476;8.310;2023-06-14T03:08:29;90880.06;;;13.62;41.03
53300;BME280;39187;48.476;8.310;2023-06-14T03:10:55;90883.00;;;13.64;41.05
53300;BME280;39187;48.476;8.310;2023-06-14T03:13:21;90875.78;;;13.74;40.61
53300;BME280;39187;48.476;8.310;2023-06-14T03:15:47;90879.31;;;13.71;40.70
53300;BME280;39187;48.476;8.310;2023-06-14T03:18:16;90883.06;;;13.74;40.64
53300;BME280;39187;48.476;8.310;2023-06-14T03:20:42;90881.22;;;13.61;41.05
53300;BME280;39187;48.476;8.310;2023-06-14T03:23:08;90882.31;;;13.73;40.63
53300;BME280;39187;48.476;8.310;2023-06-14T03:25:34;90879.78;;;13.70;41.10
53300;BME280;39187;48.476;8.310;2023-06-14T03:28:01;90878.41;;;13.65;40.90
53300;BME280;39187;48.476;8.310;2023-06-14T03:30:27;90885.69;;;13.64;40.81
53300;BME280;39187;48.476;8.310;2023-06-14T03:32:53;90887.53;;;13.77;40.52
53300;BME280;39187;48.476;8.310;2023-06-14T03:35:21;90890.56;;;13.88;40.49
53300;BME280;39187;48.476;8.310;2023-06-14T03:37:47;90894.34;;;13.69;41.01
53300;BME280;39187;48.476;8.310;2023-06-14T03:40:15;90891.22;;;13.70;40.72
53300;BME280;39187;48.476;8.310;2023-06-14T03:42:41;90890.78;;;13.72;40.83
53300;BME280;39187;48.476;8.310;2023-06-14T03:45:06;90900.88;;;13.68;41.01
53300;BME280;39187;48.476;8.310;2023-06-14T03:47:32;90900.63;;;13.84;40.92
53300;BME280;39187;48.476;8.310;2023-06-14T03:49:58;90902.88;;;13.85;40.87
53300;BME280;39187;48.476;8.310;2023-06-14T03:52:23;90907.34;;;13.88;40.94
53300;BME280;39187;48.476;8.310;2023-06-14T03:54:50;90904.22;;;13.90;40.92
53300;BME280;39187;48.476;8.310;2023-06-14T03:57:15;90902.50;;;14.05;40.77
53300;BME280;39187;48.476;8.310;2023-06-14T03:59:41;90910.94;;;14.03;40.96
53300;BME280;39187;48.476;8.310;2023-06-14T04:02:07;90913.88;;;14.36;40.38
53300;BME280;39187;48.476;8.310;2023-06-14T04:04:34;90910.97;;;14.89;39.65
53300;BME280;39187;48.476;8.310;2023-06-14T04:07:01;90915.28;;;14.77;39.51
53300;BME280;39187;48.476;8.310;2023-06-14T04:09:29;90914.84;;;14.70;39.65
53300;BME280;39187;48.476;8.310;2023-06-14T04:11:55;90923.78;;;14.94;39.22
53300;BME280;39187;48.476;8.310;2023-06-14T04:14:21;90920.91;;;15.25;38.85
53300;BME280;39187;48.476;8.310;2023-06-14T04:16:47;90921.53;;;15.29;38.37
53300;BME280;39187;48.476;8.310;2023-06-14T04:19:14;90920.16;;;16.03;37.40
53300;BME280;39187;48.476;8.310;2023-06-14T04:21:40;90918.44;;;16.24;37.08
53300;BME280;39187;48.476;8.310;2023-06-14T04:24:06;90914.59;;;16.39;36.36
53300;BME280;39187;48.476;8.310;2023-06-14T04:26:32;90917.94;;;16.58;36.14
53300;BME280;39187;48.476;8.310;2023-06-14T04:28:59;90923.50;;;16.78;35.70
53300;BME280;39187;48.476;8.310;2023-06-14T04:31:28;90923.25;;;16.43;35.81
53300;BME280;39187;48.476;8.310;2023-06-14T04:33:55;90923.06;;;16.47;36.31
53300;BME280;39187;48.476;8.310;2023-06-14T04:36:21;90928.88;;;17.41;34.70
53300;BME280;39187;48.476;8.310;2023-06-14T04:38:47;90931.38;;;17.59;34.43
53300;BME280;39187;48.476;8.310;2023-06-14T04:41:14;90930.56;;;17.14;34.85
53300;BME280;39187;48.476;8.310;2023-06-14T04:43:41;90936.34;;;18.39;32.76
53300;BME280;39187;48.476;8.310;2023-06-14T04:46:08;90938.31;;;17.51;33.95
53300;BME280;39187;48.476;8.310;2023-06-14T04:48:39;90930.44;;;18.21;33.11
53300;BME280;39187;48.476;8.310;2023-06-14T04:51:08;90938.56;;;18.41;32.37
53300;BME280;39187;48.476;8.310;2023-06-14T04:53:35;90939.84;;;18.11;33.21
53300;BME280;39187;48.476;8.310;2023-06-14T04:56:01;90931.47;;;18.93;32.50
53300;BME280;39187;48.476;8.310;2023-06-14T04:58:27;90935.53;;;18.33;32.96
53300;BME280;39187;48.476;8.310;2023-06-14T05:00:54;90946.94;;;18.43;32.83
53300;BME280;39187;48.476;8.310;2023-06-14T05:03:24;90949.16;;;18.59;32.35
53300;BME280;39187;48.476;8.310;2023-06-14T05:05:50;90933.84;;;18.71;32.40
53300;BME280;39187;48.476;8.310;2023-06-14T05:08:16;90938.44;;;18.15;32.72
53300;BME280;39187;48.476;8.310;2023-06-14T05:10:41;90947.16;;;18.74;32.13
53300;BME280;39187;48.476;8.310;2023-06-14T05:13:07;90941.16;;;19.26;31.70
53300;BME280;39187;48.476;8.310;2023-06-14T05:15:33;90940.31;;;17.80;33.43
53300;BME280;39187;48.476;8.310;2023-06-14T05:17:59;90946.16;;;19.33;31.70
53300;BME280;39187;48.476;8.310;2023-06-14T05:20:25;90941.81;;;19.20;31.37
53300;BME280;39187;48.476;8.310;2023-06-14T05:22:54;90941.97;;;20.66;29.76
53300;BME280;39187;48.476;8.310;2023-06-14T05:25:22;90941.75;;;20.07;30.40
53300;BME280;39187;48.476;8.310;2023-06-14T05:27:48;90938.25;;;19.09;31.71
53300;BME280;39187;48.476;8.310;2023-06-14T05:30:15;90941.69;;;18.54;32.73
53300;BME280;39187;48.476;8.310;2023-06-14T05:32:41;90945.31;;;20.56;30.50
53300;BME280;39187;48.476;8.310;2023-06-14T05:35:07;90936.88;;;20.42;29.70
53300;BME280;39187;48.476;8.310;2023-06-14T05:37:33;90934.31;;;21.13;28.94
53300;BME280;39187;48.476;8.310;2023-06-14T05:39:58;90946.81;;;21.58;28.26
53300;BME280;39187;48.476;8.310;2023-06-14T05:42:24;90939.78;;;21.18;29.19
53300;BME280;39187;48.476;8.310;2023-06-14T05:44:49;90951.09;;;20.12;29.13
53300;BME280;39187;48.476;8.310;2023-06-14T05:47:15;90964.28;;;20.30;28.98
53300;BME280;39187;48.476;8.310;2023-06-14T05:49:41;90955.31;;;19.20;30.50
53300;BME280;39187;48.476;8.310;2023-06-14T05:52:07;90961.03;;;19.69;30.34
53300;BME280;39187;48.476;8.310;2023-06-14T05:54:33;90962.41;;;19.38;30.70
53300;BME280;39187;48.476;8.310;2023-06-14T05:56:59;90958.31;;;20.20;30.45
53300;BME280;39187;48.476;8.310;2023-06-14T05:59:29;90958.75;;;20.45;30.20
53300;BME280;39187;48.476;8.310;2023-06-14T06:01:55;90965.66;;;21.95;28.37
53300;BME280;39187;48.476;8.310;2023-06-14T06:04:20;90966.13;;;21.18;28.99
53300;BME280;39187;48.476;8.310;2023-06-14T06:06:46;90960.75;;;22.27;28.25
53300;BME280;39187;48.476;8.310;2023-06-14T06:09:13;90958.72;;;21.94;28.34
53300;BME280;39187;48.476;8.310;2023-06-14T06:11:40;90963.91;;;23.09;26.97
53300;BME280;39187;48.476;8.310;2023-06-14T06:14:05;90962.69;;;22.10;27.96
53300;BME280;39187;48.476;8.310;2023-06-14T06:16:31;90960.50;;;22.31;27.91
53300;BME280;39187;48.476;8.310;2023-06-14T06:18:57;90976.13;;;21.60;28.81
53300;BME280;39187;48.476;8.310;2023-06-14T06:21:22;90982.13;;;21.27;28.65
53300;BME280;39187;48.476;8.310;2023-06-14T06:23:48;90981.69;;;22.55;27.97
53300;BME280;39187;48.476;8.310;2023-06-14T06:26:14;90977.50;;;22.87;26.77
53300;BME280;39187;48.476;8.310;2023-06-14T06:28:39;90982.94;;;21.39;28.63
53300;BME280;39187;48.476;8.310;2023-06-14T06:31:05;90982.38;;;21.94;27.76
53300;BME280;39187;48.476;8.310;2023-06-14T06:33:31;90979.00;;;22.44;27.67
53300;BME280;39187;48.476;8.310;2023-06-14T06:35:57;90980.72;;;22.63;27.51
53300;BME280;39187;48.476;8.310;2023-06-14T06:38:23;90976.53;;;22.23;27.66
53300;BME280;39187;48.476;8.310;2023-06-14T06:40:48;90977.53;;;22.65;27.66
53300;BME280;39187;48.476;8.310;2023-06-14T06:43:14;90976.88;;;23.50;27.01
53300;BME280;39187;48.476;8.310;2023-06-14T06:45:42;90980.53;;;24.10;26.39
53300;BME280;39187;48.476;8.310;2023-06-14T06:48:07;90987.91;;;24.92;26.19
53300;BME280;39187;48.476;8.310;2023-06-14T06:50:35;90992.13;;;24.87;25.65
53300;BME280;39187;48.476;8.310;2023-06-14T06:53:01;90998.66;;;25.33;24.92
53300;BME280;39187;48.476;8.310;2023-06-14T06:55:27;90990.41;;;25.14;25.39
53300;BME280;39187;48.476;8.310;2023-06-14T06:57:52;90993.13;;;25.38;25.53
53300;BME280;39187;48.476;8.310;2023-06-14T07:00:19;91008.97;;;25.15;24.95
53300;BME280;39187;48.476;8.310;2023-06-14T07:02:45;91006.63;;;22.92;26.96
53300;BME280;39187;48.476;8.310;2023-06-14T07:05:11;91008.06;;;23.21;26.48
53300;BME280;39187;48.476;8.310;2023-06-14T07:07:37;91007.59;;;22.95;27.56
53300;BME280;39187;48.476;8.310;2023-06-14T07:10:04;91007.31;;;22.09;28.02
53300;BME280;39187;48.476;8.310;2023-06-14T07:12:31;91003.19;;;22.58;28.07
53300;BME280;39187;48.476;8.310;2023-06-14T07:14:59;91009.69;;;23.57;27.39
53300;BME280;39187;48.476;8.310;2023-06-14T07:17:25;91005.69;;;24.27;25.99
53300;BME280;39187;48.476;8.310;2023-06-14T07:19:50;91011.25;;;23.36;27.18
53300;BME280;39187;48.476;8.310;2023-06-14T07:22:16;91012.94;;;23.45;26.80
53300;BME280;39187;48.476;8.310;2023-06-14T07:24:43;91014.34;;;23.74;25.59
53300;BME280;39187;48.476;8.310;2023-06-14T07:27:08;91023.88;;;23.11;26.68
53300;BME280;39187;48.476;8.310;2023-06-14T07:29:35;91013.78;;;22.90;26.71
53300;BME280;39187;48.476;8.310;2023-06-14T07:32:00;91012.53;;;22.68;27.46
53300;BME280;39187;48.476;8.310;2023-06-14T07:34:26;91015.84;;;23.64;26.15
53300;BME280;39187;48.476;8.310;2023-06-14T07:36:52;91021.66;;;23.95;25.84
53300;BME280;39187;48.476;8.310;2023-06-14T07:39:19;91019.66;;;22.27;26.62
53300;BME280;39187;48.476;8.310;2023-06-14T07:41:45;91017.97;;;23.02;26.97
53300;BME280;39187;48.476;8.310;2023-06-14T07:44:10;91022.94;;;23.83;25.57
53300;BME280;39187;48.476;8.310;2023-06-14T07:46:37;91026.28;;;23.54;25.51
53300;BME280;39187;48.476;8.310;2023-06-14T07:49:03;91032.06;;;22.78;26.67
53300;BME280;39187;48.476;8.310;2023-06-14T07:51:29;91025.63;;;23.09;26.38
53300;BME280;39187;48.476;8.310;2023-06-14T07:53:54;91029.31;;;22.95;26.16
53300;BME280;39187;48.476;8.310;2023-06-14T07:56:20;91020.53;;;21.90;27.65
53300;BME280;39187;48.476;8.310;2023-06-14T07:58:46;91027.06;;;22.43;27.47
53300;BME280;39187;48.476;8.310;2023-06-14T08:01:12;91024.28;;;23.43;26.58
53300;BME280;39187;48.476;8.310;2023-06-14T08:03:37;91028.13;;;22.85;26.61
53300;BME280;39187;48.476;8.310;2023-06-14T08:06:03;91022.66;;;23.01;26.59
53300;BME280;39187;48.476;8.310;2023-06-14T08:08:29;91035.03;;;23.93;25.54
53300;BME280;39187;48.476;8.310;2023-06-14T08:10:55;91019.34;;;23.58;26.10
53300;BME280;39187;48.476;8.310;2023-06-14T08:13:21;91020.72;;;23.87;25.50
53300;BME280;39187;48.476;8.310;2023-06-14T08:15:47;91007.28;;;24.01;25.74
53300;BME280;39187;48.476;8.310;2023-06-14T08:18:12;91022.97;;;24.65;25.07
53300;BME280;39187;48.476;8.310;2023-06-14T08:20:38;91034.34;;;24.69;24.93
53300;BME280;39187;48.476;8.310;2023-06-14T08:23:05;91028.50;;;24.08;25.19
53300;BME280;39187;48.476;8.310;2023-06-14T08:25:30;91025.28;;;24.09;25.53
53300;BME280;39187;48.476;8.310;2023-06-14T08:27:56;91030.91;;;23.70;26.28
53300;BME280;39187;48.476;8.310;2023-06-14T08:30:22;91028.00;;;24.09;25.57
53300;BME280;39187;48.476;8.310;2023-06-14T08:32:48;91023.78;;;23.50;26.70
53300;BME280;39187;48.476;8.310;2023-06-14T08:35:13;91025.88;;;23.91;26.23
53300;BME280;39187;48.476;8.310;2023-06-14T08:37:40;91036.31;;;23.76;26.89
53300;BME280;39187;48.476;8.310;2023-06-14T08:40:23;91035.69;;;23.47;27.66
53300;BME280;39187;48.476;8.310;2023-06-14T08:42:54;91035.16;;;23.54;27.66
53300;BME280;39187;48.476;8.310;2023-06-14T08:45:20;91043.13;;;23.08;27.37
53300;BME280;39187;48.476;8.310;2023-06-14T08:47:47;91046.94;;;21.36;30.17
53300;BME280;39187;48.476;8.310;2023-06-14T08:50:23;91048.41;;;21.96;29.71
53300;BME280;39187;48.476;8.310;2023-06-14T08:52:54;91031.50;;;22.29;29.24
53300;BME280;39187;48.476;8.310;2023-06-14T08:55:23;91025.38;;;22.40;29.43
53300;BME280;39187;48.476;8.310;2023-06-14T08:57:53;91036.69;;;22.61;28.83
53300;BME280;39187;48.476;8.310;2023-06-14T09:00:19;91036.97;;;22.74;28.91
53300;BME280;39187;48.476;8.310;2023-06-14T09:02:46;91038.44;;;23.03;29.79
53300;BME280;39187;48.476;8.310;2023-06-14T09:05:12;91054.75;;;22.81;30.00
53300;BME280;39187;48.476;8.310;2023-06-14T09:07:41;91048.31;;;21.74;31.18
53300;BME280;39187;48.476;8.310;2023-06-14T09:10:09;91044.13;;;23.10;29.81
53300;BME280;39187;48.476;8.310;2023-06-14T09:12:37;91051.69;;;22.23;30.29
53300;BME280;39187;48.476;8.310;2023-06-14T09:15:05;91051.00;;;22.50;29.17
53300;BME280;39187;48.476;8.310;2023-06-14T09:17:38;91046.81;;;23.22;29.17
53300;BME280;39187;48.476;8.310;2023-06-14T09:20:05;91048.09;;;23.04;29.24
53300;BME280;39187;48.476;8.310;2023-06-14T09:22:33;91043.34;;;23.49;29.86
53300;BME280;39187;48.476;8.310;2023-06-14T09:24:59;91058.91;;;23.21;30.06
53300;BME280;39187;48.476;8.310;2023-06-14T09:27:26;91057.69;;;23.16;29.52
53300;BME280;39187;48.476;8.310;2023-06-14T09:29:52;91057.69;;;22.99;30.01
53300;BME280;39187;48.476;8.310;2023-06-14T09:32:18;91057.91;;;23.18;29.55
53300;BME280;39187;48.476;8.310;2023-06-14T09:34:45;91052.97;;;22.55;29.27
53300;BME280;39187;48.476;8.310;2023-06-14T09:37:11;91048.44;;;22.02;30.02
53300;BME280;39187;48.476;8.310;2023-06-14T09:39:49;91077.94;;;21.35;30.97
53300;BME280;39187;48.476;8.310;2023-06-14T09:42:19;91084.78;;;21.25;32.40
53300;BME280;39187;48.476;8.310;2023-06-14T09:44:47;91074.91;;;21.22;31.78
53300;BME280;39187;48.476;8.310;2023-06-14T09:47:15;91073.66;;;21.66;30.88
53300;BME280;39187;48.476;8.310;2023-06-14T09:49:42;91091.97;;;21.39;31.65
53300;BME280;39187;48.476;8.310;2023-06-14T09:52:12;91081.56;;;21.27;32.16
53300;BME280;39187;48.476;8.310;2023-06-14T09:54:44;91084.63;;;21.45;31.20
53300;BME280;39187;48.476;8.310;2023-06-14T09:57:23;91089.66;;;21.21;31.31
53300;BME280;39187;48.476;8.310;2023-06-14T09:59:55;91067.16;;;22.00;31.12
53300;BME280;39187;48.476;8.310;2023-06-14T10:02:33;91078.38;;;21.28;31.35
53300;BME280;39187;48.476;8.310;2023-06-14T10:05:07;91063.91;;;21.37;31.10
53300;BME280;39187;48.476;8.310;2023-06-14T10:08:02;91076.00;;;21.41;31.87
53300;BME280;39187;48.476;8.310;2023-06-14T10:10:29;91081.56;;;20.95;31.80
53300;BME280;39187;48.476;8.310;2023-06-14T10:12:56;91070.25;;;20.91;32.34
53300;BME280;39187;48.476;8.310;2023-06-14T10:15:38;91066.66;;;21.42;31.96
53300;BME280;39187;48.476;8.310;2023-06-14T10:20:58;91066.41;;;21.46;31.48
53300;BME280;39187;48.476;8.310;2023-06-14T10:23:30;91078.41;;;21.76;31.94
53300;BME280;39187;48.476;8.310;2023-06-14T10:25:59;91076.91;;;21.33;32.05
53300;BME280;39187;48.476;8.310;2023-06-14T10:28:25;91077.38;;;21.26;32.80
53300;BME280;39187;48.476;8.310;2023-06-14T10:31:11;91071.19;;;20.57;34.07
53300;BME280;39187;48.476;8.310;2023-06-14T10:33:50;91073.91;;;20.11;34.23
53300;BME280;39187;48.476;8.310;2023-06-14T10:41:41;91071.16;;;20.05;34.59
53300;BME280;39187;48.476;8.310;2023-06-14T10:46:49;91062.94;;;21.03;33.44
53300;BME280;39187;48.476;8.310;2023-06-14T10:49:37;91064.41;;;20.67;33.28
53300;BME280;39187;48.476;8.310;2023-06-14T10:52:16;91068.34;;;20.40;33.00
53300;BME280;39187;48.476;8.310;2023-06-14T10:55:11;91072.59;;;20.78;32.29
53300;BME280;39187;48.476;8.310;2023-06-14T10:57:50;91072.25;;;20.96;31.86
53300;BME280;39187;48.476;8.310;2023-06-14T11:00:27;91076.38;;;21.23;31.97
53300;BME280;39187;48.476;8.310;2023-06-14T11:05:57;91078.47;;;20.76;32.62
53300;BME280;39187;48.476;8.310;2023-06-14T11:11:31;91065.19;;;20.73;32.62
53300;BME280;39187;48.476;8.310;2023-06-14T11:13:59;91070.41;;;20.82;33.20
53300;BME280;39187;48.476;8.310;2023-06-14T11:16:26;91070.25;;;20.60;34.31
53300;BME280;39187;48.476;8.310;2023-06-14T11:18:53;91068.47;;;20.57;33.49
53300;BME280;39187;48.476;8.310;2023-06-14T11:21:19;91065.63;;;20.14;33.67
53300;BME280;39187;48.476;8.310;2023-06-14T11:23:51;91066.72;;;20.28;34.49
53300;BME280;39187;48.476;8.310;2023-06-14T11:26:28;91060.63;;;20.59;34.19
53300;BME280;39187;48.476;8.310;2023-06-14T11:29:00;91063.81;;;20.31;33.40
53300;BME280;39187;48.476;8.310;2023-06-14T11:31:27;91059.03;;;20.41;33.22
53300;BME280;39187;48.476;8.310;2023-06-14T11:33:54;91069.69;;;20.30;34.20
53300;BME280;39187;48.476;8.310;2023-06-14T11:36:23;91076.19;;;20.18;33.55
53300;BME280;39187;48.476;8.310;2023-06-14T11:38:48;91065.34;;;19.46;34.26
53300;BME280;39187;48.476;8.310;2023-06-14T11:41:14;91059.56;;;19.38;34.71
53300;BME280;39187;48.476;8.310;2023-06-14T11:43:40;91053.19;;;19.76;34.86
53300;BME280;39187;48.476;8.310;2023-06-14T11:46:14;91058.84;;;20.04;35.34
53300;BME280;39187;48.476;8.310;2023-06-14T11:48:47;91054.19;;;20.05;35.24
53300;BME280;39187;48.476;8.310;2023-06-14T11:51:12;91060.88;;;19.83;34.90
53300;BME280;39187;48.476;8.310;2023-06-14T11:53:38;91056.28;;;19.69;34.62
53300;BME280;39187;48.476;8.310;2023-06-14T11:56:04;91054.84;;;19.94;34.22
53300;BME280;39187;48.476;8.310;2023-06-14T11:58:30;91050.50;;;20.02;34.52
53300;BME280;39187;48.476;8.310;2023-06-14T12:00:56;91049.31;;;20.29;34.15
53300;BME280;39187;48.476;8.310;2023-06-14T12:03:25;91047.31;;;20.03;33.46
53300;BME280;39187;48.476;8.310;2023-06-14T12:06:06;91039.56;;;20.37;33.72
53300;BME280;39187;48.476;8.310;2023-06-14T12:08:36;91050.69;;;20.45;33.98
53300;BME280;39187;48.476;8.310;2023-06-14T12:11:06;91044.22;;;20.36;32.88
53300;BME280;39187;48.476;8.310;2023-06-14T12:13:34;91049.66;;;20.42;33.08
53300;BME280;39187;48.476;8.310;2023-06-14T12:16:01;91047.06;;;20.53;34.17
53300;BME280;39187;48.476;8.310;2023-06-14T12:18:35;91046.00;;;19.53;36.44
53300;BME280;39187;48.476;8.310;2023-06-14T12:21:01;91047.19;;;19.92;35.15
53300;BME280;39187;48.476;8.310;2023-06-14T12:23:47;91047.09;;;19.81;34.48
53300;BME280;39187;48.476;8.310;2023-06-14T12:26:18;91040.78;;;19.64;35.05
53300;BME280;39187;48.476;8.310;2023-06-14T12:28:47;91042.03;;;19.69;35.77
53300;BME280;39187;48.476;8.310;2023-06-14T12:31:14;91044.03;;;19.94;35.38
53300;BME280;39187;48.476;8.310;2023-06-14T12:33:41;91037.50;;;19.80;35.31
53300;BME280;39187;48.476;8.310;2023-06-14T12:36:08;91050.25;;;19.80;35.03
53300;BME280;39187;48.476;8.310;2023-06-14T12:38:35;91041.50;;;19.65;35.22
53300;BME280;39187;48.476;8.310;2023-06-14T12:41:01;91035.09;;;19.62;35.71
53300;BME280;39187;48.476;8.310;2023-06-14T12:43:27;91038.38;;;19.72;35.84
53300;BME280;39187;48.476;8.310;2023-06-14T12:45:53;91044.06;;;19.53;35.82
53300;BME280;39187;48.476;8.310;2023-06-14T12:48:19;91054.22;;;19.23;35.82
53300;BME280;39187;48.476;8.310;2023-06-14T12:50:45;91047.66;;;19.10;36.05
53300;BME280;39187;48.476;8.310;2023-06-14T12:53:10;91051.22;;;19.56;35.51
53300;BME280;39187;48.476;8.310;2023-06-14T12:55:36;91057.56;;;19.53;36.19
53300;BME280;39187;48.476;8.310;2023-06-14T12:58:01;91053.69;;;19.40;35.96
53300;BME280;39187;48.476;8.310;2023-06-14T13:00:27;91061.06;;;19.39;35.30
53300;BME280;39187;48.476;8.310;2023-06-14T13:02:55;91055.66;;;19.39;34.80
53300;BME280;39187;48.476;8.310;2023-06-14T13:05:20;91043.94;;;19.63;34.64
53300;BME280;39187;48.476;8.310;2023-06-14T13:07:46;91062.72;;;19.51;35.55
53300;BME280;39187;48.476;8.310;2023-06-14T13:10:11;91056.28;;;19.89;36.20
53300;BME280;39187;48.476;8.310;2023-06-14T13:12:37;91056.00;;;19.87;35.91
53300;BME280;39187;48.476;8.310;2023-06-14T13:15:03;91051.97;;;19.77;35.13
53300;BME280;39187;48.476;8.310;2023-06-14T13:17:28;91050.66;;;19.93;35.39
53300;BME280;39187;48.476;8.310;2023-06-14T13:19:54;91055.59;;;19.94;35.58
53300;BME280;39187;48.476;8.310;2023-06-14T13:22:20;91052.72;;;19.78;34.98